sensor_id;sensor_type;location;lat;lon;timestamp;P1;durP1;ratioP1;P2;durP2;ratioP2
10537;SDS011;5317;49.048;8.468;2022-11-15T00:00:48;13.90;;;12.40;;
10537;SDS011;5317;49.048;8.468;2022-11-15T00:03:16;12.67;;;11.30;;
10537;SDS011;5317;49.048;8.468;2022-11-15T00:05:49;13.20;;;11.80;;
10537;SDS011;5317;49.048;8.468;2022-11-15T00:08:18;12.67;;;10.83;;
10537;SDS011;5317;49.048;8.468;2022-11-15T00:10:53;11.67;;;10.47;;
10537;SDS011;5317;49.048;8.468;2022-11-15T00:13:21;13.93;;;11.13;;
10537;SDS011;5317;49.048;8.468;2022-11-15T00:15:49;12.47;;;11.27;;
10537;SDS011;5317;49.048;8.468;2022-11-15T00:18:17;14.47;;;11.90;;
10537;SDS011;5317;49.048;8.468;2022-11-15T00:20:45;14.37;;;11.30;;
10537;SDS011;5317;49.048;8.468;2022-11-15T00:23:14;12.83;;;10.87;;
10537;SDS011;5317;49.048;8.468;2022-11-15T00:25:41;11.67;;;10.50;;
10537;SDS011;5317;49.048;8.468;2022-11-15T00:28:08;12.13;;;10.83;;
10537;SDS011;5317;49.048;8.468;2022-11-15T00:30:36;14.57;;;10.63;;
10537;SDS011;5317;49.048;8.468;2022-11-15T00:33:03;13.47;;;10.90;;
10537;SDS011;5317;49.048;8.468;2022-11-15T00:35:32;14.67;;;11.00;;
10537;SDS011;5317;49.048;8.468;2022-11-15T00:38:00;12.03;;;10.23;;
10537;SDS011;5317;49.048;8.468;2022-11-15T00:40:29;11.80;;;10.60;;
10537;SDS011;5317;49.048;8.468;2022-11-15T00:42:57;10.50;;;9.47;;
10537;SDS011;5317;49.048;8.468;2022-11-15T00:45:25;13.20;;;11.80;;
10537;SDS011;5317;49.048;8.468;2022-11-15T00:47:53;12.37;;;11.00;;
10537;SDS011;5317;49.048;8.468;2022-11-15T00:50:20;12.50;;;9.93;;
10537;SDS011;5317;49.048;8.468;2022-11-15T00:52:47;11.53;;;10.43;;
10537;SDS011;5317;49.048;8.468;2022-11-15T00:55:14;11.97;;;10.63;;
10537;SDS011;5317;49.048;8.468;2022-11-15T00:57:45;12.13;;;10.67;;
10537;SDS011;5317;49.048;8.468;2022-11-15T01:00:12;13.30;;;11.20;;
10537;SDS011;5317;49.048;8.468;2022-11-15T01:02:40;12.23;;;10.30;;
10537;SDS011;5317;49.048;8.468;2022-11-15T01:05:08;14.13;;;10.53;;
10537;SDS011;5317;49.048;8.468;2022-11-15T01:07:35;12.53;;;10.73;;
10537;SDS011;5317;49.048;8.468;2022-11-15T01:10:04;11.07;;;9.93;;
10537;SDS011;5317;49.048;8.468;2022-11-15T01:12:32;11.40;;;10.20;;
10537;SDS011;5317;49.048;8.468;2022-11-15T01:15:01;11.87;;;10.03;;
10537;SDS011;5317;49.048;8.468;2022-11-15T01:17:29;11.40;;;10.23;;
10537;SDS011;5317;49.048;8.468;2022-11-15T01:19:57;10.10;;;9.10;;
10537;SDS011;5317;49.048;8.468;2022-11-15T01:22:25;11.73;;;9.90;;
10537;SDS011;5317;49.048;8.468;2022-11-15T01:24:52;10.83;;;9.70;;
10537;SDS011;5317;49.048;8.468;2022-11-15T01:27:19;10.10;;;8.97;;
10537;SDS011;5317;49.048;8.468;2022-11-15T01:29:46;11.37;;;10.07;;
10537;SDS011;5317;49.048;8.468;2022-11-15T01:32:15;11.07;;;9.83;;
10537;SDS011;5317;49.048;8.468;2022-11-15T01:34:43;10.90;;;9.83;;
10537;SDS011;5317;49.048;8.468;2022-11-15T01:37:10;10.73;;;8.80;;
10537;SDS011;5317;49.048;8.468;2022-11-15T01:39:37;10.73;;;9.63;;
10537;SDS011;5317;49.048;8.468;2022-11-15T01:42:05;10.13;;;9.13;;
10537;SDS011;5317;49.048;8.468;2022-11-15T01:44:39;10.50;;;9.40;;
10537;SDS011;5317;49.048;8.468;2022-11-15T01:47:11;11.63;;;10.13;;
10537;SDS011;5317;49.048;8.468;2022-11-15T01:49:47;10.07;;;9.07;;
10537;SDS011;5317;49.048;8.468;2022-11-15T01:52:22;12.23;;;10.80;;
10537;SDS011;5317;49.048;8.468;2022-11-15T01:54:56;10.73;;;9.57;;
10537;SDS011;5317;49.048;8.468;2022-11-15T01:57:29;11.67;;;9.47;;
10537;SDS011;5317;49.048;8.468;2022-11-15T01:59:57;10.80;;;9.70;;
10537;SDS011;5317;49.048;8.468;2022-11-15T02:02:30;11.07;;;9.97;;
10537;SDS011;5317;49.048;8.468;2022-11-15T02:04:59;10.83;;;8.90;;
10537;SDS011;5317;49.048;8.468;2022-11-15T02:07:26;10.20;;;9.20;;
10537;SDS011;5317;49.048;8.468;2022-11-15T02:09:57;15.07;;;10.57;;
10537;SDS011;5317;49.048;8.468;2022-11-15T02:12:30;11.73;;;10.40;;
10537;SDS011;5317;49.048;8.468;2022-11-15T02:14:57;11.17;;;10.00;;
10537;SDS011;5317;49.048;8.468;2022-11-15T02:17:29;11.23;;;10.07;;
10537;SDS011;5317;49.048;8.468;2022-11-15T02:30:18;8.97;;;8.07;;
10537;SDS011;5317;49.048;8.468;2022-11-15T02:32:52;10.17;;;8.27;;
10537;SDS011;5317;49.048;8.468;2022-11-15T02:35:27;9.07;;;7.40;;
10537;SDS011;5317;49.048;8.468;2022-11-15T02:38:10;9.60;;;8.30;;
10537;SDS011;5317;49.048;8.468;2022-11-15T02:40:49;9.43;;;7.73;;
10537;SDS011;5317;49.048;8.468;2022-11-15T02:43:25;9.57;;;8.67;;
10537;SDS011;5317;49.048;8.468;2022-11-15T02:46:27;11.17;;;9.70;;
10537;SDS011;5317;49.048;8.468;2022-11-15T02:49:18;14.00;;;9.73;;
10537;SDS011;5317;49.048;8.468;2022-11-15T02:51:46;11.10;;;9.97;;
10537;SDS011;5317;49.048;8.468;2022-11-15T02:54:18;10.80;;;9.23;;
10537;SDS011;5317;49.048;8.468;2022-11-15T02:56:50;11.33;;;10.13;;
10537;SDS011;5317;49.048;8.468;2022-11-15T03:02:34;10.33;;;9.03;;
10537;SDS011;5317;49.048;8.468;2022-11-15T03:05:23;10.67;;;9.20;;
10537;SDS011;5317;49.048;8.468;2022-11-15T03:08:01;11.47;;;9.27;;
10537;SDS011;5317;49.048;8.468;2022-11-15T03:10:39;12.43;;;9.63;;
10537;SDS011;5317;49.048;8.468;2022-11-15T03:13:21;10.87;;;9.43;;
10537;SDS011;5317;49.048;8.468;2022-11-15T03:15:54;10.67;;;9.57;;
10537;SDS011;5317;49.048;8.468;2022-11-15T03:18:32;10.50;;;9.40;;
10537;SDS011;5317;49.048;8.468;2022-11-15T03:21:05;10.40;;;9.30;;
10537;SDS011;5317;49.048;8.468;2022-11-15T03:23:36;11.83;;;9.50;;
10537;SDS011;5317;49.048;8.468;2022-11-15T03:26:06;11.00;;;9.67;;
10537;SDS011;5317;49.048;8.468;2022-11-15T03:28:40;10.27;;;9.03;;
10537;SDS011;5317;49.048;8.468;2022-11-15T03:31:13;12.50;;;9.00;;
10537;SDS011;5317;49.048;8.468;2022-11-15T03:33:58;13.03;;;9.47;;
10537;SDS011;5317;49.048;8.468;2022-11-15T03:36:30;11.20;;;9.00;;
10537;SDS011;5317;49.048;8.468;2022-11-15T03:39:01;9.10;;;8.20;;
10537;SDS011;5317;49.048;8.468;2022-11-15T03:41:35;11.50;;;9.60;;
10537;SDS011;5317;49.048;8.468;2022-11-15T03:44:10;11.17;;;9.00;;
10537;SDS011;5317;49.048;8.468;2022-11-15T03:46:50;10.93;;;9.83;;
10537;SDS011;5317;49.048;8.468;2022-11-15T03:49:29;11.13;;;8.73;;
10537;SDS011;5317;49.048;8.468;2022-11-15T03:52:00;9.67;;;8.77;;
10537;SDS011;5317;49.048;8.468;2022-11-15T03:54:29;10.13;;;8.87;;
10537;SDS011;5317;49.048;8.468;2022-11-15T03:57:03;10.27;;;8.80;;
10537;SDS011;5317;49.048;8.468;2022-11-15T03:59:30;10.10;;;9.00;;
10537;SDS011;5317;49.048;8.468;2022-11-15T04:01:57;10.90;;;9.00;;
10537;SDS011;5317;49.048;8.468;2022-11-15T04:04:25;9.30;;;8.40;;
10537;SDS011;5317;49.048;8.468;2022-11-15T04:06:53;9.70;;;8.13;;
10537;SDS011;5317;49.048;8.468;2022-11-15T04:09:20;9.47;;;8.37;;
10537;SDS011;5317;49.048;8.468;2022-11-15T04:11:48;10.33;;;8.23;;
10537;SDS011;5317;49.048;8.468;2022-11-15T04:14:15;10.23;;;8.77;;
10537;SDS011;5317;49.048;8.468;2022-11-15T04:16:43;9.93;;;8.90;;
10537;SDS011;5317;49.048;8.468;2022-11-15T04:19:10;9.43;;;8.50;;
10537;SDS011;5317;49.048;8.468;2022-11-15T04:22:04;9.27;;;8.27;;
10537;SDS011;5317;49.048;8.468;2022-11-15T04:24:51;9.33;;;8.07;;
10537;SDS011;5317;49.048;8.468;2022-11-15T04:27:18;8.97;;;7.70;;
10537;SDS011;5317;49.048;8.468;2022-11-15T04:29:46;8.87;;;7.23;;
10537;SDS011;5317;49.048;8.468;2022-11-15T04:32:13;8.20;;;6.87;;
10537;SDS011;5317;49.048;8.468;2022-11-15T04:34:40;12.57;;;6.97;;
10537;SDS011;5317;49.048;8.468;2022-11-15T04:37:09;7.60;;;6.77;;
10537;SDS011;5317;49.048;8.468;2022-11-15T04:39:38;6.30;;;5.67;;
10537;SDS011;5317;49.048;8.468;2022-11-15T04:42:07;8.97;;;6.90;;
10537;SDS011;5317;49.048;8.468;2022-11-15T04:44:34;10.20;;;6.73;;
10537;SDS011;5317;49.048;8.468;2022-11-15T04:47:02;8.47;;;7.07;;
10537;SDS011;5317;49.048;8.468;2022-11-15T04:49:29;8.63;;;7.63;;
10537;SDS011;5317;49.048;8.468;2022-11-15T04:51:57;8.13;;;7.30;;
10537;SDS011;5317;49.048;8.468;2022-11-15T04:54:25;9.80;;;7.17;;
10537;SDS011;5317;49.048;8.468;2022-11-15T04:56:53;7.83;;;7.03;;
10537;SDS011;5317;49.048;8.468;2022-11-15T04:59:20;7.67;;;6.70;;
10537;SDS011;5317;49.048;8.468;2022-11-15T05:01:47;6.87;;;6.13;;
10537;SDS011;5317;49.048;8.468;2022-11-15T05:04:14;7.03;;;6.43;;
10537;SDS011;5317;49.048;8.468;2022-11-15T05:06:47;8.10;;;7.30;;
10537;SDS011;5317;49.048;8.468;2022-11-15T05:09:15;8.10;;;7.30;;
10537;SDS011;5317;49.048;8.468;2022-11-15T05:11:44;8.47;;;7.47;;
10537;SDS011;5317;49.048;8.468;2022-11-15T05:14:13;7.33;;;6.60;;
10537;SDS011;5317;49.048;8.468;2022-11-15T05:16:40;8.13;;;6.83;;
10537;SDS011;5317;49.048;8.468;2022-11-15T05:19:08;9.60;;;7.40;;
10537;SDS011;5317;49.048;8.468;2022-11-15T05:21:36;10.50;;;6.60;;
10537;SDS011;5317;49.048;8.468;2022-11-15T05:24:03;7.17;;;6.47;;
10537;SDS011;5317;49.048;8.468;2022-11-15T05:26:31;7.83;;;7.13;;
10537;SDS011;5317;49.048;8.468;2022-11-15T05:29:00;8.33;;;6.90;;
10537;SDS011;5317;49.048;8.468;2022-11-15T05:31:27;6.93;;;6.27;;
10537;SDS011;5317;49.048;8.468;2022-11-15T05:33:55;9.30;;;7.03;;
10537;SDS011;5317;49.048;8.468;2022-11-15T05:36:27;6.83;;;6.20;;
10537;SDS011;5317;49.048;8.468;2022-11-15T05:38:59;11.67;;;7.10;;
10537;SDS011;5317;49.048;8.468;2022-11-15T05:41:29;8.00;;;6.40;;
10537;SDS011;5317;49.048;8.468;2022-11-15T05:44:03;8.00;;;7.17;;
10537;SDS011;5317;49.048;8.468;2022-11-15T05:46:35;7.87;;;7.07;;
10537;SDS011;5317;49.048;8.468;2022-11-15T05:49:07;8.17;;;6.93;;
10537;SDS011;5317;49.048;8.468;2022-11-15T05:51:41;7.77;;;7.00;;
10537;SDS011;5317;49.048;8.468;2022-11-15T05:54:14;7.97;;;7.17;;
10537;SDS011;5317;49.048;8.468;2022-11-15T05:56:44;7.50;;;6.80;;
10537;SDS011;5317;49.048;8.468;2022-11-15T05:59:13;9.27;;;7.13;;
10537;SDS011;5317;49.048;8.468;2022-11-15T06:01:41;7.80;;;6.67;;
10537;SDS011;5317;49.048;8.468;2022-11-15T06:04:08;8.43;;;6.70;;
10537;SDS011;5317;49.048;8.468;2022-11-15T06:06:36;8.87;;;6.73;;
10537;SDS011;5317;49.048;8.468;2022-11-15T06:09:03;6.77;;;6.03;;
10537;SDS011;5317;49.048;8.468;2022-11-15T06:11:30;7.63;;;6.60;;
10537;SDS011;5317;49.048;8.468;2022-11-15T06:13:57;7.83;;;6.47;;
10537;SDS011;5317;49.048;8.468;2022-11-15T06:16:26;8.77;;;6.43;;
10537;SDS011;5317;49.048;8.468;2022-11-15T06:18:53;7.03;;;6.33;;
10537;SDS011;5317;49.048;8.468;2022-11-15T06:21:20;6.93;;;6.33;;
10537;SDS011;5317;49.048;8.468;2022-11-15T06:23:48;6.50;;;5.80;;
10537;SDS011;5317;49.048;8.468;2022-11-15T06:26:15;7.07;;;6.37;;
10537;SDS011;5317;49.048;8.468;2022-11-15T06:28:42;7.90;;;6.27;;
10537;SDS011;5317;49.048;8.468;2022-11-15T06:31:10;8.20;;;6.67;;
10537;SDS011;5317;49.048;8.468;2022-11-15T06:33:39;7.10;;;6.40;;
10537;SDS011;5317;49.048;8.468;2022-11-15T06:36:07;8.20;;;6.80;;
10537;SDS011;5317;49.048;8.468;2022-11-15T06:38:38;7.10;;;6.40;;
10537;SDS011;5317;49.048;8.468;2022-11-15T06:41:06;7.00;;;6.30;;
10537;SDS011;5317;49.048;8.468;2022-11-15T06:43:36;6.57;;;5.97;;
10537;SDS011;5317;49.048;8.468;2022-11-15T06:46:04;7.83;;;6.73;;
10537;SDS011;5317;49.048;8.468;2022-11-15T06:48:33;7.17;;;6.47;;
10537;SDS011;5317;49.048;8.468;2022-11-15T06:51:02;6.50;;;5.90;;
10537;SDS011;5317;49.048;8.468;2022-11-15T06:53:31;8.17;;;7.00;;
10537;SDS011;5317;49.048;8.468;2022-11-15T06:55:58;5.90;;;5.37;;
10537;SDS011;5317;49.048;8.468;2022-11-15T06:58:26;6.67;;;5.23;;
10537;SDS011;5317;49.048;8.468;2022-11-15T07:00:57;6.63;;;5.20;;
10537;SDS011;5317;49.048;8.468;2022-11-15T07:03:26;5.57;;;4.97;;
10537;SDS011;5317;49.048;8.468;2022-11-15T07:05:54;5.37;;;4.73;;
10537;SDS011;5317;49.048;8.468;2022-11-15T07:08:26;5.93;;;5.30;;
10537;SDS011;5317;49.048;8.468;2022-11-15T07:10:55;5.17;;;4.63;;
10537;SDS011;5317;49.048;8.468;2022-11-15T07:13:26;5.20;;;4.70;;
10537;SDS011;5317;49.048;8.468;2022-11-15T07:15:58;4.93;;;4.47;;
10537;SDS011;5317;49.048;8.468;2022-11-15T07:18:28;5.37;;;4.63;;
10537;SDS011;5317;49.048;8.468;2022-11-15T07:20:59;5.13;;;4.13;;
10537;SDS011;5317;49.048;8.468;2022-11-15T07:23:31;5.03;;;4.57;;
10537;SDS011;5317;49.048;8.468;2022-11-15T07:25:59;4.53;;;4.13;;
10537;SDS011;5317;49.048;8.468;2022-11-15T07:28:27;6.33;;;4.43;;
10537;SDS011;5317;49.048;8.468;2022-11-15T07:30:54;5.57;;;4.80;;
10537;SDS011;5317;49.048;8.468;2022-11-15T07:33:21;7.30;;;5.00;;
10537;SDS011;5317;49.048;8.468;2022-11-15T07:35:49;5.00;;;4.50;;
10537;SDS011;5317;49.048;8.468;2022-11-15T07:38:16;4.90;;;4.23;;
10537;SDS011;5317;49.048;8.468;2022-11-15T07:40:46;5.03;;;4.50;;
10537;SDS011;5317;49.048;8.468;2022-11-15T07:43:21;6.80;;;4.90;;
10537;SDS011;5317;49.048;8.468;2022-11-15T07:45:48;6.23;;;4.67;;
10537;SDS011;5317;49.048;8.468;2022-11-15T07:48:15;5.77;;;4.27;;
10537;SDS011;5317;49.048;8.468;2022-11-15T07:50:43;6.30;;;4.50;;
10537;SDS011;5317;49.048;8.468;2022-11-15T07:53:10;5.10;;;4.20;;
10537;SDS011;5317;49.048;8.468;2022-11-15T07:55:39;5.13;;;4.60;;
10537;SDS011;5317;49.048;8.468;2022-11-15T07:58:09;6.27;;;4.67;;
10537;SDS011;5317;49.048;8.468;2022-11-15T08:00:38;4.97;;;4.30;;
10537;SDS011;5317;49.048;8.468;2022-11-15T08:03:06;4.80;;;4.10;;
10537;SDS011;5317;49.048;8.468;2022-11-15T08:05:35;5.23;;;4.40;;
10537;SDS011;5317;49.048;8.468;2022-11-15T08:08:04;4.80;;;4.13;;
10537;SDS011;5317;49.048;8.468;2022-11-15T08:10:33;5.80;;;4.80;;
10537;SDS011;5317;49.048;8.468;2022-11-15T08:13:01;5.37;;;4.67;;
10537;SDS011;5317;49.048;8.468;2022-11-15T08:15:32;5.23;;;4.73;;
10537;SDS011;5317;49.048;8.468;2022-11-15T08:18:01;6.30;;;5.70;;
10537;SDS011;5317;49.048;8.468;2022-11-15T08:20:32;6.50;;;4.87;;
10537;SDS011;5317;49.048;8.468;2022-11-15T08:23:00;8.23;;;5.50;;
10537;SDS011;5317;49.048;8.468;2022-11-15T08:25:30;7.00;;;5.63;;
10537;SDS011;5317;49.048;8.468;2022-11-15T08:28:00;5.67;;;5.07;;
10537;SDS011;5317;49.048;8.468;2022-11-15T08:30:33;5.83;;;5.23;;
10537;SDS011;5317;49.048;8.468;2022-11-15T08:33:09;6.37;;;5.00;;
10537;SDS011;5317;49.048;8.468;2022-11-15T08:35:38;5.77;;;4.60;;
10537;SDS011;5317;49.048;8.468;2022-11-15T08:38:06;5.50;;;5.00;;
10537;SDS011;5317;49.048;8.468;2022-11-15T08:40:34;6.07;;;4.50;;
10537;SDS011;5317;49.048;8.468;2022-11-15T08:43:02;6.00;;;4.57;;
10537;SDS011;5317;49.048;8.468;2022-11-15T08:45:33;6.60;;;4.90;;
10537;SDS011;5317;49.048;8.468;2022-11-15T08:48:02;4.83;;;3.83;;
10537;SDS011;5317;49.048;8.468;2022-11-15T08:50:31;4.13;;;3.73;;
10537;SDS011;5317;49.048;8.468;2022-11-15T08:53:03;5.03;;;4.53;;
10537;SDS011;5317;49.048;8.468;2022-11-15T08:55:35;7.47;;;5.23;;
10537;SDS011;5317;49.048;8.468;2022-11-15T08:58:04;9.40;;;7.17;;
10537;SDS011;5317;49.048;8.468;2022-11-15T09:00:33;9.10;;;7.80;;
10537;SDS011;5317;49.048;8.468;2022-11-15T09:03:03;9.53;;;8.13;;
10537;SDS011;5317;49.048;8.468;2022-11-15T09:05:31;8.70;;;7.57;;
10537;SDS011;5317;49.048;8.468;2022-11-15T09:07:58;9.77;;;8.10;;
10537;SDS011;5317;49.048;8.468;2022-11-15T09:10:25;8.27;;;7.47;;
10537;SDS011;5317;49.048;8.468;2022-11-15T09:12:52;8.63;;;7.83;;
10537;SDS011;5317;49.048;8.468;2022-11-15T09:15:20;7.93;;;6.87;;
10537;SDS011;5317;49.048;8.468;2022-11-15T09:17:48;7.70;;;6.90;;
10537;SDS011;5317;49.048;8.468;2022-11-15T09:20:15;7.20;;;6.40;;
10537;SDS011;5317;49.048;8.468;2022-11-15T09:22:43;5.97;;;5.47;;
10537;SDS011;5317;49.048;8.468;2022-11-15T09:25:10;6.27;;;5.67;;
10537;SDS011;5317;49.048;8.468;2022-11-15T09:27:37;4.63;;;4.20;;
10537;SDS011;5317;49.048;8.468;2022-11-15T09:30:09;6.27;;;4.83;;
10537;SDS011;5317;49.048;8.468;2022-11-15T09:32:37;4.73;;;4.30;;
10537;SDS011;5317;49.048;8.468;2022-11-15T09:35:06;5.00;;;4.30;;
10537;SDS011;5317;49.048;8.468;2022-11-15T09:37:33;5.23;;;4.27;;
10537;SDS011;5317;49.048;8.468;2022-11-15T09:40:00;5.40;;;4.63;;
10537;SDS011;5317;49.048;8.468;2022-11-15T09:42:32;6.80;;;4.43;;
10537;SDS011;5317;49.048;8.468;2022-11-15T09:45:18;7.07;;;5.20;;
10537;SDS011;5317;49.048;8.468;2022-11-15T09:48:08;5.33;;;4.53;;
10537;SDS011;5317;49.048;8.468;2022-11-15T09:51:12;5.77;;;4.67;;
10537;SDS011;5317;49.048;8.468;2022-11-15T09:53:56;5.17;;;4.00;;
10537;SDS011;5317;49.048;8.468;2022-11-15T09:56:37;5.53;;;4.03;;
10537;SDS011;5317;49.048;8.468;2022-11-15T09:59:13;4.63;;;3.90;;
10537;SDS011;5317;49.048;8.468;2022-11-15T10:01:57;5.63;;;4.07;;
10537;SDS011;5317;49.048;8.468;2022-11-15T10:04:42;4.67;;;3.90;;
10537;SDS011;5317;49.048;8.468;2022-11-15T10:07:13;4.70;;;3.73;;
10537;SDS011;5317;49.048;8.468;2022-11-15T10:09:47;5.70;;;4.13;;
10537;SDS011;5317;49.048;8.468;2022-11-15T10:12:21;7.77;;;4.40;;
10537;SDS011;5317;49.048;8.468;2022-11-15T10:14:50;4.77;;;4.00;;
10537;SDS011;5317;49.048;8.468;2022-11-15T10:17:38;4.33;;;3.80;;
10537;SDS011;5317;49.048;8.468;2022-11-15T10:20:30;4.07;;;3.67;;
10537;SDS011;5317;49.048;8.468;2022-11-15T10:23:10;5.57;;;3.90;;
10537;SDS011;5317;49.048;8.468;2022-11-15T10:25:40;6.10;;;4.63;;
10537;SDS011;5317;49.048;8.468;2022-11-15T10:28:09;4.90;;;4.10;;
10537;SDS011;5317;49.048;8.468;2022-11-15T10:30:42;6.30;;;4.23;;
10537;SDS011;5317;49.048;8.468;2022-11-15T10:33:16;4.30;;;3.90;;
10537;SDS011;5317;49.048;8.468;2022-11-15T10:41:36;7.90;;;4.50;;
10537;SDS011;5317;49.048;8.468;2022-11-15T10:44:11;4.47;;;4.07;;
10537;SDS011;5317;49.048;8.468;2022-11-15T10:47:03;6.80;;;4.10;;
10537;SDS011;5317;49.048;8.468;2022-11-15T10:49:52;5.70;;;4.00;;
10537;SDS011;5317;49.048;8.468;2022-11-15T10:52:26;6.60;;;3.97;;
10537;SDS011;5317;49.048;8.468;2022-11-15T10:54:58;4.90;;;3.97;;
10537;SDS011;5317;49.048;8.468;2022-11-15T10:57:33;5.13;;;4.20;;
10537;SDS011;5317;49.048;8.468;2022-11-15T11:00:05;5.33;;;4.17;;
10537;SDS011;5317;49.048;8.468;2022-11-15T11:02:56;6.27;;;4.03;;
10537;SDS011;5317;49.048;8.468;2022-11-15T11:05:26;5.17;;;4.30;;
10537;SDS011;5317;49.048;8.468;2022-11-15T11:07:59;5.97;;;4.80;;
10537;SDS011;5317;49.048;8.468;2022-11-15T11:10:32;5.20;;;4.20;;
10537;SDS011;5317;49.048;8.468;2022-11-15T11:13:12;5.57;;;4.57;;
10537;SDS011;5317;49.048;8.468;2022-11-15T11:15:40;6.40;;;4.10;;
10537;SDS011;5317;49.048;8.468;2022-11-15T11:18:15;5.63;;;4.23;;
10537;SDS011;5317;49.048;8.468;2022-11-15T11:20:56;4.97;;;4.27;;
10537;SDS011;5317;49.048;8.468;2022-11-15T11:23:35;4.50;;;4.10;;
10537;SDS011;5317;49.048;8.468;2022-11-15T11:26:18;5.67;;;3.70;;
10537;SDS011;5317;49.048;8.468;2022-11-15T11:29:10;4.57;;;4.17;;
10537;SDS011;5317;49.048;8.468;2022-11-15T11:32:03;5.37;;;3.90;;
10537;SDS011;5317;49.048;8.468;2022-11-15T11:34:54;4.33;;;3.60;;
10537;SDS011;5317;49.048;8.468;2022-11-15T11:37:35;5.20;;;3.83;;
10537;SDS011;5317;49.048;8.468;2022-11-15T11:40:16;4.37;;;3.97;;
10537;SDS011;5317;49.048;8.468;2022-11-15T11:43:01;4.17;;;3.53;;
10537;SDS011;5317;49.048;8.468;2022-11-15T11:45:56;4.47;;;4.07;;
10537;SDS011;5317;49.048;8.468;2022-11-15T11:48:43;5.37;;;3.90;;
10537;SDS011;5317;49.048;8.468;2022-11-15T11:51:18;5.17;;;4.27;;
10537;SDS011;5317;49.048;8.468;2022-11-15T11:53:51;4.57;;;3.80;;
10537;SDS011;5317;49.048;8.468;2022-11-15T11:56:25;4.50;;;3.83;;
10537;SDS011;5317;49.048;8.468;2022-11-15T11:58:57;4.70;;;3.63;;
10537;SDS011;5317;49.048;8.468;2022-11-15T12:01:35;4.20;;;3.80;;
10537;SDS011;5317;49.048;8.468;2022-11-15T12:04:09;5.40;;;3.50;;
10537;SDS011;5317;49.048;8.468;2022-11-15T12:06:47;4.87;;;3.60;;
10537;SDS011;5317;49.048;8.468;2022-11-15T12:09:26;5.33;;;4.10;;
10537;SDS011;5317;49.048;8.468;2022-11-15T12:12:04;5.20;;;3.77;;
10537;SDS011;5317;49.048;8.468;2022-11-15T12:14:41;5.17;;;3.47;;
10537;SDS011;5317;49.048;8.468;2022-11-15T12:17:22;3.50;;;2.83;;
10537;SDS011;5317;49.048;8.468;2022-11-15T12:19:52;3.83;;;3.03;;
10537;SDS011;5317;49.048;8.468;2022-11-15T12:22:27;4.23;;;3.70;;
10537;SDS011;5317;49.048;8.468;2022-11-15T12:25:06;4.37;;;3.27;;
10537;SDS011;5317;49.048;8.468;2022-11-15T12:27:45;3.67;;;3.10;;
10537;SDS011;5317;49.048;8.468;2022-11-15T12:30:21;4.07;;;3.07;;
10537;SDS011;5317;49.048;8.468;2022-11-15T12:32:52;3.17;;;2.87;;
10537;SDS011;5317;49.048;8.468;2022-11-15T12:35:24;3.97;;;3.30;;
10537;SDS011;5317;49.048;8.468;2022-11-15T12:38:08;4.07;;;3.50;;
10537;SDS011;5317;49.048;8.468;2022-11-15T12:40:38;4.53;;;3.23;;
10537;SDS011;5317;49.048;8.468;2022-11-15T12:43:42;4.40;;;3.23;;
10537;SDS011;5317;49.048;8.468;2022-11-15T12:52:11;3.80;;;3.40;;
10537;SDS011;5317;49.048;8.468;2022-11-15T12:54:59;5.23;;;3.63;;
10537;SDS011;5317;49.048;8.468;2022-11-15T12:57:33;4.60;;;2.93;;
10537;SDS011;5317;49.048;8.468;2022-11-15T13:06:39;3.83;;;3.53;;
10537;SDS011;5317;49.048;8.468;2022-11-15T13:15:35;3.53;;;2.70;;
10537;SDS011;5317;49.048;8.468;2022-11-15T13:18:31;4.10;;;2.70;;
10537;SDS011;5317;49.048;8.468;2022-11-15T13:21:04;3.50;;;2.60;;
10537;SDS011;5317;49.048;8.468;2022-11-15T13:24:04;4.60;;;2.83;;
10537;SDS011;5317;49.048;8.468;2022-11-15T13:26:38;3.70;;;2.70;;
10537;SDS011;5317;49.048;8.468;2022-11-15T13:29:14;3.67;;;2.80;;
10537;SDS011;5317;49.048;8.468;2022-11-15T13:31:43;3.33;;;2.77;;
10537;SDS011;5317;49.048;8.468;2022-11-15T13:34:26;3.50;;;2.60;;
10537;SDS011;5317;49.048;8.468;2022-11-15T13:36:58;3.00;;;2.60;;
10537;SDS011;5317;49.048;8.468;2022-11-15T13:39:27;4.30;;;2.80;;
10537;SDS011;5317;49.048;8.468;2022-11-15T13:41:57;4.10;;;3.07;;
10537;SDS011;5317;49.048;8.468;2022-11-15T13:44:26;3.20;;;2.73;;
10537;SDS011;5317;49.048;8.468;2022-11-15T13:47:06;4.70;;;2.80;;
10537;SDS011;5317;49.048;8.468;2022-11-15T13:49:41;3.00;;;2.70;;
10537;SDS011;5317;49.048;8.468;2022-11-15T13:52:10;3.37;;;3.00;;
10537;SDS011;5317;49.048;8.468;2022-11-15T13:54:42;4.30;;;3.00;;
10537;SDS011;5317;49.048;8.468;2022-11-15T13:57:14;4.57;;;3.10;;
10537;SDS011;5317;49.048;8.468;2022-11-15T13:59:48;3.90;;;3.03;;
10537;SDS011;5317;49.048;8.468;2022-11-15T14:02:20;4.47;;;2.97;;
10537;SDS011;5317;49.048;8.468;2022-11-15T14:04:55;3.50;;;3.00;;
10537;SDS011;5317;49.048;8.468;2022-11-15T14:07:26;3.10;;;2.80;;
10537;SDS011;5317;49.048;8.468;2022-11-15T14:09:55;3.63;;;2.90;;
10537;SDS011;5317;49.048;8.468;2022-11-15T14:12:24;3.80;;;3.20;;
10537;SDS011;5317;49.048;8.468;2022-11-15T14:14:57;3.30;;;2.70;;
10537;SDS011;5317;49.048;8.468;2022-11-15T14:17:33;4.27;;;3.00;;
10537;SDS011;5317;49.048;8.468;2022-11-15T14:22:58;3.60;;;3.13;;
10537;SDS011;5317;49.048;8.468;2022-11-15T14:25:27;3.63;;;3.23;;
10537;SDS011;5317;49.048;8.468;2022-11-15T14:30:42;5.13;;;3.17;;
10537;SDS011;5317;49.048;8.468;2022-11-15T14:33:19;5.00;;;2.70;;
10537;SDS011;5317;49.048;8.468;2022-11-15T14:35:49;4.03;;;3.33;;
10537;SDS011;5317;49.048;8.468;2022-11-15T14:38:19;5.37;;;3.10;;
10537;SDS011;5317;49.048;8.468;2022-11-15T14:40:46;5.67;;;3.10;;
10537;SDS011;5317;49.048;8.468;2022-11-15T14:43:15;10.07;;;3.63;;
10537;SDS011;5317;49.048;8.468;2022-11-15T14:45:42;6.43;;;3.70;;
10537;SDS011;5317;49.048;8.468;2022-11-15T14:48:09;7.30;;;4.17;;
10537;SDS011;5317;49.048;8.468;2022-11-15T14:50:36;7.83;;;4.00;;
10537;SDS011;5317;49.048;8.468;2022-11-15T14:53:04;4.20;;;3.47;;
10537;SDS011;5317;49.048;8.468;2022-11-15T14:55:33;3.77;;;3.43;;
10537;SDS011;5317;49.048;8.468;2022-11-15T14:58:02;4.40;;;3.50;;
10537;SDS011;5317;49.048;8.468;2022-11-15T15:00:30;3.67;;;2.90;;
10537;SDS011;5317;49.048;8.468;2022-11-15T15:02:58;3.10;;;2.80;;
10537;SDS011;5317;49.048;8.468;2022-11-15T15:05:32;3.50;;;3.13;;
10537;SDS011;5317;49.048;8.468;2022-11-15T15:08:02;5.40;;;3.97;;
10537;SDS011;5317;49.048;8.468;2022-11-15T15:10:33;4.03;;;3.13;;
10537;SDS011;5317;49.048;8.468;2022-11-15T15:13:03;4.47;;;3.40;;
10537;SDS011;5317;49.048;8.468;2022-11-15T15:15:32;5.40;;;3.80;;
10537;SDS011;5317;49.048;8.468;2022-11-15T15:18:02;3.77;;;3.37;;
10537;SDS011;5317;49.048;8.468;2022-11-15T15:20:34;5.20;;;4.10;;
10537;SDS011;5317;49.048;8.468;2022-11-15T15:23:04;8.63;;;5.60;;
10537;SDS011;5317;49.048;8.468;2022-11-15T15:25:33;8.33;;;6.50;;
10537;SDS011;5317;49.048;8.468;2022-11-15T15:28:01;7.07;;;4.63;;
10537;SDS011;5317;49.048;8.468;2022-11-15T15:30:29;7.07;;;4.73;;
10537;SDS011;5317;49.048;8.468;2022-11-15T15:32:57;6.73;;;4.10;;
10537;SDS011;5317;49.048;8.468;2022-11-15T15:35:24;4.77;;;3.87;;
10537;SDS011;5317;49.048;8.468;2022-11-15T15:37:58;4.07;;;3.57;;
10537;SDS011;5317;49.048;8.468;2022-11-15T15:40:26;4.63;;;3.53;;
10537;SDS011;5317;49.048;8.468;2022-11-15T15:42:57;5.07;;;3.30;;
10537;SDS011;5317;49.048;8.468;2022-11-15T15:45:25;4.80;;;3.70;;
10537;SDS011;5317;49.048;8.468;2022-11-15T15:47:53;5.57;;;5.07;;
10537;SDS011;5317;49.048;8.468;2022-11-15T15:50:24;5.10;;;4.60;;
10537;SDS011;5317;49.048;8.468;2022-11-15T15:52:54;6.00;;;4.33;;
10537;SDS011;5317;49.048;8.468;2022-11-15T15:55:23;5.00;;;3.70;;
10537;SDS011;5317;49.048;8.468;2022-11-15T15:57:50;5.17;;;4.10;;
10537;SDS011;5317;49.048;8.468;2022-11-15T16:00:20;5.07;;;4.00;;
10537;SDS011;5317;49.048;8.468;2022-11-15T16:02:49;5.93;;;4.30;;
10537;SDS011;5317;49.048;8.468;2022-11-15T16:05:17;6.07;;;5.47;;
10537;SDS011;5317;49.048;8.468;2022-11-15T16:07:45;6.80;;;5.20;;